createdAt,value
2018-12-01T00:00:49.024Z,10.10
2018-12-01T00:03:18.472Z,10.00
2018-12-01T00:05:47.773Z,10.00
2018-12-01T00:08:17.080Z,10.00
2018-12-01T00:10:46.407Z,10.00
2018-12-01T00:13:15.788Z,9.90
2018-12-01T00:15:45.167Z,9.90
2018-12-01T00:18:14.511Z,9.90
2018-12-01T00:20:43.943Z,9.90
2018-12-01T00:23:13.295Z,9.80
2018-12-01T00:25:42.611Z,9.80
2018-12-01T00:28:12.037Z,9.80
2018-12-01T00:30:41.823Z,9.80
2018-12-01T00:33:11.139Z,9.70
2018-12-01T00:35:40.423Z,9.70
2018-12-01T00:38:09.719Z,9.70
2018-12-01T00:40:39.094Z,9.70
2018-12-01T00:43:08.390Z,9.70
2018-12-01T00:45:37.871Z,9.70
2018-12-01T00:48:07.159Z,9.70
2018-12-01T00:50:36.539Z,9.70
2018-12-01T00:53:06.242Z,9.70
2018-12-01T00:55:35.555Z,9.60
2018-12-01T00:58:05.016Z,9.70
2018-12-01T01:00:34.479Z,9.70
2018-12-01T01:03:04.007Z,9.70
2018-12-01T01:05:33.348Z,9.70
2018-12-01T01:08:02.875Z,9.70
2018-12-01T01:10:34.696Z,9.70
2018-12-01T01:13:03.145Z,9.70
2018-12-01T01:15:32.510Z,9.80
2018-12-01T01:18:01.916Z,9.80
2018-12-01T01:20:31.367Z,9.90
2018-12-01T01:23:00.897Z,9.80
2018-12-01T01:25:30.242Z,9.90
2018-12-01T01:27:59.587Z,9.90
2018-12-01T01:30:30.476Z,9.90
2018-12-01T01:33:16.598Z,9.90
2018-12-01T01:35:45.933Z,9.90
2018-12-01T01:38:15.357Z,10.00
2018-12-01T01:40:44.722Z,9.90
2018-12-01T01:43:14.187Z,9.90
2018-12-01T01:45:43.549Z,10.00
2018-12-01T01:48:12.883Z,10.00
2018-12-01T01:50:42.241Z,9.90
2018-12-01T01:53:11.526Z,10.00
2018-12-01T01:55:40.976Z,10.00
2018-12-01T01:58:10.435Z,10.00
2018-12-01T02:00:39.835Z,10.00
2018-12-01T02:03:09.176Z,10.00
2018-12-01T02:05:38.482Z,10.00
2018-12-01T02:08:08.214Z,9.90
2018-12-01T02:10:37.573Z,9.90
2018-12-01T02:13:06.908Z,9.90
2018-12-01T02:15:36.189Z,9.90
2018-12-01T02:18:06.059Z,9.90
2018-12-01T02:20:35.464Z,9.80
2018-12-01T02:23:04.752Z,9.90
2018-12-01T02:25:34.136Z,9.80
2018-12-01T02:28:05.671Z,9.80
2018-12-01T02:30:35.074Z,9.80
2018-12-01T02:33:04.396Z,9.90
2018-12-01T02:35:33.620Z,9.90
2018-12-01T02:38:02.976Z,9.90
2018-12-01T02:40:32.329Z,9.90
2018-12-01T02:43:01.731Z,10.00
2018-12-01T02:45:47.904Z,10.00
2018-12-01T02:48:17.248Z,10.00
2018-12-01T02:50:46.568Z,9.90
2018-12-01T02:53:15.903Z,10.00
2018-12-01T02:55:45.386Z,9.90
2018-12-01T02:58:14.680Z,10.00
2018-12-01T03:00:52.873Z,9.90
2018-12-01T03:03:22.171Z,9.80
2018-12-01T03:05:51.526Z,9.80
2018-12-01T03:08:20.905Z,9.80
2018-12-01T03:10:50.247Z,9.90
2018-12-01T03:13:19.539Z,9.80
2018-12-01T03:15:48.849Z,10.00
2018-12-01T03:18:18.152Z,9.80
2018-12-01T03:20:47.547Z,9.90
2018-12-01T03:23:16.903Z,9.90
2018-12-01T03:25:46.263Z,9.80
2018-12-01T03:28:15.581Z,9.80
2018-12-01T03:30:44.934Z,9.70
2018-12-01T03:33:14.251Z,9.70
2018-12-01T03:35:43.572Z,9.70
2018-12-01T03:38:12.936Z,9.70
2018-12-01T03:40:48.355Z,9.70
2018-12-01T03:43:17.990Z,9.70
2018-12-01T03:45:47.342Z,9.70
2018-12-01T03:48:16.638Z,9.70
2018-12-01T03:50:46.092Z,9.80
2018-12-01T03:53:15.456Z,9.70
2018-12-01T03:55:44.827Z,9.70
2018-12-01T03:58:14.156Z,9.60
2018-12-01T04:00:43.542Z,9.70
2018-12-01T04:03:12.791Z,9.70
2018-12-01T04:05:42.117Z,9.60
2018-12-01T04:08:11.492Z,9.60
2018-12-01T04:10:41.907Z,9.50
2018-12-01T04:13:11.256Z,9.50
2018-12-01T04:15:40.572Z,9.50
2018-12-01T04:18:09.864Z,9.40
2018-12-01T04:20:39.144Z,9.30
2018-12-01T04:23:08.756Z,9.40
2018-12-01T04:25:38.051Z,9.30
2018-12-01T04:28:07.444Z,9.20
2018-12-01T04:30:36.817Z,9.20
2018-12-01T04:33:06.618Z,9.20
2018-12-01T04:35:35.929Z,9.20
2018-12-01T04:38:05.177Z,9.20
2018-12-01T04:40:34.526Z,9.10
2018-12-01T04:43:03.871Z,9.20
2018-12-01T04:45:33.185Z,9.20
2018-12-01T04:48:02.551Z,9.10
2018-12-01T04:50:33.943Z,9.10
2018-12-01T04:53:03.324Z,9.10
2018-12-01T04:55:32.668Z,9.10
2018-12-01T04:58:02.003Z,9.10
2018-12-01T05:00:31.316Z,9.10
2018-12-01T05:03:00.661Z,9.00
2018-12-01T05:05:30.003Z,9.10
2018-12-01T05:07:59.366Z,9.10
2018-12-01T05:10:28.907Z,9.10
2018-12-01T05:12:58.171Z,9.10
2018-12-01T05:15:27.525Z,9.10
2018-12-01T05:17:56.779Z,9.10
2018-12-01T05:20:26.139Z,9.00
2018-12-01T05:22:55.479Z,9.00
2018-12-01T05:25:25.028Z,9.00
2018-12-01T05:27:54.292Z,9.10
2018-12-01T05:30:23.547Z,9.00
2018-12-01T05:32:52.798Z,9.00
2018-12-01T05:35:23.599Z,8.90
2018-12-01T05:37:52.955Z,9.00
2018-12-01T05:40:22.605Z,8.90
2018-12-01T05:42:51.972Z,8.90
2018-12-01T05:45:23.205Z,8.80
2018-12-01T05:47:53.178Z,8.90
2018-12-01T05:50:23.181Z,9.00
2018-12-01T05:52:54.909Z,8.90
2018-12-01T05:55:24.312Z,8.90
2018-12-01T05:57:53.664Z,9.00
2018-12-01T06:00:23.040Z,9.00
2018-12-01T06:02:52.365Z,9.00
2018-12-01T06:05:21.685Z,9.10
2018-12-01T06:07:50.980Z,9.00
2018-12-01T06:10:22.667Z,9.00
2018-12-01T06:12:53.340Z,9.00
2018-12-01T06:15:22.823Z,9.00
2018-12-01T06:17:52.090Z,9.00
2018-12-01T06:20:23.127Z,9.10
2018-12-01T06:22:52.432Z,9.00
2018-12-01T06:25:23.483Z,9.10
2018-12-01T06:27:56.687Z,9.10
2018-12-01T06:30:25.995Z,9.10
2018-12-01T06:32:55.323Z,9.10
2018-12-01T06:35:24.666Z,9.10
2018-12-01T06:37:53.922Z,9.10
2018-12-01T06:40:23.165Z,9.10
2018-12-01T06:42:52.612Z,9.10
2018-12-01T06:45:21.975Z,9.10
2018-12-01T06:47:51.307Z,9.10
2018-12-01T06:50:22.180Z,9.00
2018-12-01T06:52:52.975Z,9.00
2018-12-01T06:55:23.529Z,9.10
2018-12-01T06:57:53.204Z,9.10
2018-12-01T07:00:26.035Z,9.10
2018-12-01T07:02:56.701Z,9.10
2018-12-01T07:05:26.059Z,9.10
2018-12-01T07:07:55.640Z,9.10
2018-12-01T07:10:25.013Z,9.20
2018-12-01T07:12:59.503Z,9.20
2018-12-01T07:15:35.313Z,9.20
2018-12-01T07:18:20.259Z,9.20
2018-12-01T07:20:49.859Z,9.20
2018-12-01T07:23:19.179Z,9.20
2018-12-01T07:25:48.498Z,9.20
2018-12-01T07:28:17.903Z,9.20
2018-12-01T07:30:47.212Z,9.10
2018-12-01T07:33:16.552Z,9.20
2018-12-01T07:35:45.831Z,9.20
2018-12-01T07:38:15.343Z,9.20
2018-12-01T07:40:44.865Z,9.20
2018-12-01T07:43:14.210Z,9.30
2018-12-01T07:45:43.480Z,9.30
2018-12-01T07:48:12.733Z,9.50
2018-12-01T07:50:42.036Z,9.50
2018-12-01T07:53:11.448Z,9.50
2018-12-01T07:55:43.854Z,9.50
2018-12-01T07:58:13.142Z,9.50
2018-12-01T08:00:42.484Z,9.60
2018-12-01T08:03:11.819Z,9.70
2018-12-01T08:05:41.088Z,9.70
2018-12-01T08:08:10.312Z,9.60
2018-12-01T08:10:40.406Z,9.70
2018-12-01T08:13:09.715Z,9.70
2018-12-01T08:15:39.017Z,9.80
2018-12-01T08:18:08.277Z,9.70
2018-12-01T08:20:37.548Z,9.80
2018-12-01T08:23:06.927Z,9.80
2018-12-01T08:25:36.497Z,9.80
2018-12-01T08:28:07.486Z,9.90
2018-12-01T08:30:36.840Z,10.00
2018-12-01T08:33:06.661Z,10.10
2018-12-01T08:35:36.057Z,10.10
2018-12-01T08:38:05.369Z,10.20
2018-12-01T08:40:35.230Z,10.20
2018-12-01T08:43:04.923Z,10.20
2018-12-01T08:45:34.218Z,10.20
2018-12-01T08:48:03.521Z,10.20
2018-12-01T08:50:36.999Z,10.10
2018-12-01T08:53:06.581Z,10.10
2018-12-01T08:55:35.909Z,10.10
2018-12-01T08:58:05.332Z,10.30
2018-12-01T09:00:39.951Z,10.20
2018-12-01T09:03:17.339Z,10.30
2018-12-01T09:05:46.700Z,10.30
2018-12-01T09:08:16.301Z,10.30
2018-12-01T09:10:45.606Z,10.30
2018-12-01T09:13:14.931Z,10.40
2018-12-01T09:15:44.300Z,10.40
2018-12-01T09:18:13.625Z,10.30
2018-12-01T09:20:42.900Z,10.30
2018-12-01T09:23:12.151Z,10.30
2018-12-01T09:25:41.447Z,10.30
2018-12-01T09:28:10.917Z,10.30
2018-12-01T09:30:42.204Z,10.40
2018-12-01T09:33:11.689Z,10.40
2018-12-01T09:35:41.616Z,10.40
2018-12-01T09:38:10.906Z,10.50
2018-12-01T09:40:40.271Z,10.60
2018-12-01T09:43:09.785Z,10.70
2018-12-01T09:45:39.072Z,10.80
2018-12-01T09:48:08.420Z,10.90
2018-12-01T09:50:38.700Z,10.70
2018-12-01T09:53:09.028Z,10.70
2018-12-01T09:55:38.350Z,10.60
2018-12-01T09:58:07.879Z,10.60
2018-12-01T10:00:38.169Z,10.80
2018-12-01T10:03:08.830Z,10.90
2018-12-01T10:05:38.150Z,11.10
2018-12-01T10:08:08.121Z,11.20
2018-12-01T10:10:37.416Z,11.40
2018-12-01T10:13:06.821Z,11.40
2018-12-01T10:15:37.315Z,11.40
2018-12-01T10:18:08.813Z,11.40
2018-12-01T10:20:38.701Z,11.50
2018-12-01T10:23:11.187Z,11.40
2018-12-01T10:25:40.540Z,11.40
2018-12-01T10:28:11.285Z,11.40
2018-12-01T10:30:40.543Z,11.50
2018-12-01T10:33:09.873Z,11.50
2018-12-01T10:35:39.244Z,11.60
2018-12-01T10:38:15.107Z,11.80
2018-12-01T10:40:45.501Z,11.90
2018-12-01T10:43:14.831Z,11.80
2018-12-01T10:45:44.131Z,11.90
2018-12-01T10:48:13.394Z,11.80
2018-12-01T10:50:42.760Z,11.90
2018-12-01T10:53:12.153Z,12.00
2018-12-01T10:55:42.504Z,12.10
2018-12-01T10:58:15.911Z,12.10
2018-12-01T11:00:52.085Z,12.10
2018-12-01T11:03:29.542Z,12.00
2018-12-01T11:06:00.505Z,12.00
2018-12-01T11:08:29.911Z,12.00
2018-12-01T11:10:59.267Z,12.10
2018-12-01T11:13:28.682Z,12.10
2018-12-01T11:15:58.155Z,12.20
2018-12-01T11:18:27.581Z,12.20
2018-12-01T11:20:57.115Z,12.10
2018-12-01T11:23:26.521Z,11.80
2018-12-01T11:25:56.103Z,11.90
2018-12-01T11:28:25.404Z,12.00
2018-12-01T11:30:56.189Z,12.00
2018-12-01T11:33:26.496Z,12.00
2018-12-01T11:35:55.964Z,11.90
2018-12-01T11:38:26.432Z,12.00
2018-12-01T11:40:55.793Z,12.00
2018-12-01T11:43:25.163Z,12.10
2018-12-01T11:45:54.613Z,12.10
2018-12-01T11:48:24.080Z,12.10
2018-12-01T11:50:53.430Z,12.20
2018-12-01T11:53:22.791Z,12.10
2018-12-01T11:55:52.079Z,12.10
2018-12-01T11:58:21.465Z,12.10
2018-12-01T12:00:50.708Z,12.00
2018-12-01T12:03:20.308Z,11.90
2018-12-01T12:05:49.607Z,11.90
2018-12-01T12:08:22.500Z,12.00
2018-12-01T12:10:52.207Z,11.90
2018-12-01T12:13:24.656Z,12.10
2018-12-01T12:15:54.105Z,12.00
2018-12-01T12:18:23.624Z,12.10
2018-12-01T12:20:52.961Z,12.00
2018-12-01T12:23:22.362Z,12.00
2018-12-01T12:25:51.701Z,12.00
2018-12-01T12:28:21.086Z,12.00
2018-12-01T12:30:50.508Z,11.90
2018-12-01T12:33:19.945Z,11.90
2018-12-01T12:35:50.401Z,12.00
2018-12-01T12:38:19.740Z,11.90
2018-12-01T12:40:51.167Z,12.00
2018-12-01T12:43:20.490Z,12.10
2018-12-01T12:45:49.757Z,12.10
2018-12-01T12:48:19.064Z,12.10
2018-12-01T12:50:53.122Z,12.20
2018-12-01T12:53:17.796Z,12.20
2018-12-01T12:55:47.169Z,12.30
2018-12-01T12:58:16.587Z,12.40
2018-12-01T13:00:46.185Z,12.40
2018-12-01T13:03:15.514Z,12.50
2018-12-01T13:05:46.532Z,12.40
2018-12-01T13:08:19.899Z,12.40
2018-12-01T13:10:49.820Z,12.40
2018-12-01T13:13:19.146Z,12.40
2018-12-01T13:15:49.629Z,12.50
2018-12-01T13:18:19.082Z,12.40
2018-12-01T13:20:48.788Z,12.40
2018-12-01T13:23:18.083Z,12.50
2018-12-01T13:25:48.460Z,12.20
2018-12-01T13:28:25.467Z,12.40
2018-12-01T13:31:00.810Z,12.50
2018-12-01T13:33:30.303Z,12.50
2018-12-01T13:35:59.643Z,12.50
2018-12-01T13:38:30.126Z,12.40
2018-12-01T13:40:59.482Z,12.30
2018-12-01T13:43:28.799Z,12.40
2018-12-01T13:46:00.292Z,12.30
2018-12-01T13:48:29.625Z,12.30
2018-12-01T13:51:00.083Z,12.40
2018-12-01T13:53:29.513Z,12.30
2018-12-01T13:55:58.953Z,12.30
2018-12-01T13:58:28.336Z,12.30
2018-12-01T14:00:57.886Z,12.30
2018-12-01T14:03:27.280Z,12.10
2018-12-01T14:05:56.714Z,12.20
2018-12-01T14:08:26.141Z,12.10
2018-12-01T14:10:55.565Z,12.10
2018-12-01T14:13:24.840Z,12.10
2018-12-01T14:15:54.227Z,12.00
2018-12-01T15:42:27.189Z,11.40
2018-12-01T15:44:56.529Z,11.40
2018-12-01T15:47:25.935Z,11.40
2018-12-01T15:49:55.361Z,11.40
2018-12-01T15:52:24.824Z,11.40
2018-12-01T15:54:54.142Z,11.40
2018-12-01T15:57:23.716Z,11.40
2018-12-01T15:59:54.074Z,11.40
2018-12-01T16:02:23.613Z,11.40
2018-12-01T16:04:52.966Z,11.30
2018-12-01T16:07:22.332Z,11.30
2018-12-01T16:09:53.854Z,11.30
2018-12-01T16:12:23.176Z,11.30
2018-12-01T16:14:52.463Z,11.40
2018-12-01T16:17:21.810Z,11.30
2018-12-01T16:19:51.118Z,11.40
2018-12-01T16:22:21.484Z,11.40
2018-12-01T16:24:50.848Z,11.40
2018-12-01T16:27:21.658Z,11.40
2018-12-01T16:29:51.382Z,11.40
2018-12-01T16:32:20.698Z,11.50
2018-12-01T16:34:50.053Z,11.50
2018-12-01T16:37:19.334Z,11.40
2018-12-01T16:39:48.768Z,11.50
2018-12-01T16:42:18.232Z,11.60
2018-12-01T16:44:47.684Z,11.60
2018-12-01T16:47:17.070Z,11.50
2018-12-01T16:49:46.467Z,11.50
2018-12-01T16:52:16.950Z,11.50
2018-12-01T16:54:46.250Z,11.50
2018-12-01T16:57:15.616Z,11.40
2018-12-01T16:59:44.931Z,11.50
2018-12-01T17:02:14.228Z,11.50
2018-12-01T17:04:43.589Z,11.60
2018-12-01T17:07:12.934Z,11.50
2018-12-01T17:09:43.444Z,11.50
2018-12-01T17:12:12.847Z,11.50
2018-12-01T17:14:53.855Z,11.50
2018-12-01T17:17:23.221Z,11.40
2018-12-01T17:19:52.632Z,11.50
2018-12-01T17:22:22.616Z,11.40
2018-12-01T17:24:51.935Z,11.40
2018-12-01T17:27:21.328Z,11.40
2018-12-01T17:29:50.605Z,11.50
2018-12-01T17:32:20.130Z,11.50
2018-12-01T17:34:50.506Z,11.60
2018-12-01T17:37:21.598Z,11.50
2018-12-01T17:39:50.985Z,11.50
2018-12-01T17:42:21.147Z,11.50
2018-12-01T17:44:50.585Z,11.50
2018-12-01T17:47:20.585Z,11.60
2018-12-01T17:49:50.008Z,11.70
2018-12-01T17:52:27.156Z,11.60
2018-12-01T17:54:56.590Z,11.60
2018-12-01T17:57:26.546Z,11.60
2018-12-01T17:59:55.945Z,11.60
2018-12-01T18:02:25.345Z,11.50
2018-12-01T18:04:54.837Z,11.50
2018-12-01T18:07:24.233Z,11.50
2018-12-01T18:09:53.562Z,11.60
2018-12-01T18:12:22.941Z,11.50
2018-12-01T18:14:52.252Z,11.60
2018-12-01T18:17:21.572Z,11.60
2018-12-01T18:19:50.849Z,11.60
2018-12-01T18:22:20.393Z,11.50
2018-12-01T18:24:49.691Z,11.40
2018-12-01T18:27:19.071Z,11.50
2018-12-01T18:29:48.337Z,11.40
2018-12-01T18:32:17.840Z,11.40
2018-12-01T18:34:47.123Z,11.30
2018-12-01T18:37:16.541Z,11.30
2018-12-01T18:39:45.835Z,11.20
2018-12-01T18:42:15.139Z,11.30
2018-12-01T18:44:44.418Z,11.20
2018-12-01T18:47:13.674Z,11.30
2018-12-01T18:49:43.228Z,11.30
2018-12-01T18:52:12.559Z,11.20
2018-12-01T18:54:41.869Z,11.20
2018-12-01T18:57:11.198Z,11.20
2018-12-01T18:59:40.495Z,11.20
2018-12-01T19:02:09.821Z,11.10
2018-12-01T19:04:39.105Z,11.20
2018-12-01T19:07:08.478Z,11.20
2018-12-01T19:09:37.830Z,11.20
2018-12-01T19:12:07.258Z,11.30
2018-12-01T19:14:39.711Z,11.30
2018-12-01T19:17:09.103Z,11.20
2018-12-01T19:19:38.577Z,11.20
2018-12-01T19:22:07.936Z,11.00
2018-12-01T19:24:37.210Z,10.90
2018-12-01T19:27:06.556Z,10.80
2018-12-01T19:29:36.059Z,10.60
2018-12-01T19:32:05.519Z,10.60
2018-12-01T19:34:34.842Z,10.60
2018-12-01T19:37:06.203Z,10.50
2018-12-01T19:39:35.531Z,10.50
2018-12-01T19:42:05.211Z,10.40
2018-12-01T19:44:35.567Z,10.40
2018-12-01T19:47:04.935Z,10.50
2018-12-01T19:49:34.264Z,10.50
2018-12-01T19:52:15.767Z,10.50
2018-12-01T19:54:45.103Z,10.50
2018-12-01T19:57:14.783Z,10.60
2018-12-01T19:59:45.075Z,10.60
2018-12-01T20:02:17.305Z,10.60
2018-12-01T20:04:49.641Z,10.50
2018-12-01T20:07:19.261Z,10.60
2018-12-01T20:09:48.630Z,10.60
2018-12-01T20:12:17.936Z,10.60
2018-12-01T20:14:48.839Z,10.50
2018-12-01T20:17:18.178Z,10.50
2018-12-01T20:19:47.692Z,10.50
2018-12-01T20:22:17.731Z,10.60
2018-12-01T20:24:48.032Z,10.50
2018-12-01T20:27:20.016Z,10.50
2018-12-01T20:29:50.095Z,10.50
2018-12-01T20:32:19.548Z,10.40
2018-12-01T20:34:49.809Z,10.40
2018-12-01T20:37:20.700Z,10.30
2018-12-01T20:39:52.924Z,10.40
2018-12-01T20:42:22.433Z,10.40
2018-12-01T20:44:53.604Z,10.40
2018-12-01T20:47:23.058Z,10.40
2018-12-01T20:49:52.394Z,10.40
2018-12-01T20:52:23.842Z,10.30
2018-12-01T20:54:53.163Z,10.40
2018-12-01T20:57:31.104Z,10.30
2018-12-01T21:00:01.032Z,10.40
2018-12-01T21:02:30.285Z,10.40
2018-12-01T21:04:59.518Z,10.50
2018-12-01T21:07:28.821Z,10.40
2018-12-01T21:09:58.148Z,10.40
2018-12-01T21:12:27.510Z,10.40
2018-12-01T21:14:56.868Z,10.30
2018-12-01T21:17:26.127Z,10.30
2018-12-01T21:19:55.494Z,10.30
2018-12-01T21:22:26.853Z,10.30
2018-12-01T21:24:56.198Z,10.30
2018-12-01T21:27:27.535Z,10.30
2018-12-01T21:29:56.956Z,10.30
2018-12-01T21:32:26.369Z,10.20
2018-12-01T21:34:55.639Z,10.20
2018-12-01T21:37:24.946Z,10.20
2018-12-01T21:39:54.286Z,10.30
2018-12-01T21:42:24.603Z,10.20
2018-12-01T21:44:53.869Z,10.20
2018-12-01T21:47:23.206Z,10.30
2018-12-01T21:49:52.508Z,10.30
2018-12-01T21:52:21.805Z,10.30
2018-12-01T21:54:51.142Z,10.30
2018-12-01T21:57:20.430Z,10.30
2018-12-01T21:59:50.854Z,10.30
2018-12-01T22:02:20.157Z,10.30
2018-12-01T22:04:49.444Z,10.30
2018-12-01T22:07:18.744Z,10.30
2018-12-01T22:09:48.105Z,10.40
2018-12-01T22:12:17.568Z,10.40
2018-12-01T22:14:46.906Z,10.30
2018-12-01T22:17:16.255Z,10.30
2018-12-01T22:19:45.606Z,10.30
2018-12-01T22:22:15.486Z,10.30
2018-12-01T22:24:44.163Z,10.30
2018-12-01T22:27:13.397Z,10.30
2018-12-01T22:29:42.662Z,10.30
2018-12-01T22:32:11.968Z,10.40
2018-12-01T22:34:41.205Z,10.40
2018-12-01T22:37:10.530Z,10.50
2018-12-01T22:39:39.783Z,10.50
2018-12-01T22:42:09.073Z,10.50
2018-12-01T22:44:38.355Z,10.50
2018-12-01T22:47:07.710Z,10.60
2018-12-01T22:49:37.280Z,10.60
2018-12-01T22:52:06.670Z,10.60
2018-12-01T22:54:35.997Z,10.70
2018-12-01T22:57:05.836Z,10.70
2018-12-01T22:59:35.423Z,10.80
2018-12-01T23:02:04.729Z,10.70
2018-12-01T23:04:35.108Z,10.80
2018-12-01T23:07:04.367Z,10.90
2018-12-01T23:09:33.752Z,10.90
2018-12-01T23:12:03.181Z,10.90
2018-12-01T23:14:32.444Z,10.90
2018-12-01T23:17:01.816Z,10.90
2018-12-01T23:19:31.131Z,11.00
2018-12-01T23:22:00.580Z,11.00
2018-12-01T23:24:30.019Z,11.00
2018-12-01T23:27:00.399Z,11.10
2018-12-01T23:29:29.750Z,11.00
2018-12-01T23:31:59.271Z,11.10
2018-12-01T23:34:28.643Z,11.10
2018-12-01T23:36:57.994Z,11.10
2018-12-01T23:39:27.317Z,11.20
2018-12-01T23:41:58.700Z,11.20
2018-12-01T23:44:29.869Z,11.30
2018-12-01T23:46:59.171Z,11.30
2018-12-01T23:49:28.541Z,11.30
2018-12-01T23:51:57.892Z,11.30
2018-12-01T23:54:27.249Z,11.30
2018-12-01T23:56:57.737Z,11.30
2018-12-01T23:59:27.263Z,11.30
